FlightSpace

METAR
EPBY 212100Z 32008KT 9999 FEW020 11/10 Q1017
TAF
TAF EPBY 211730Z 2118/2218 31007KT 9999 BKN020 BECMG 2121/2124 BKN014 TEMPO 2200/2212 3000 -RA BR BKN005 BKN010
TAF EPBY 211130Z 2112/2212 36010KT 9999 SCT030 BECMG 2121/2124 30008KT BKN014 TEMPO 2200/2212 4000 -RA BKN005 BKN010
TAF EPBY 210530Z 2106/2206 VRB03KT CAVOK BECMG 2107/2109 36010KT BECMG 2121/2124 BKN014
TAF EPBY 202330Z 2100/2124 VRB03KT CAVOK TEMPO 2101/2107 3000 BR PROB40 2102/2106 0800 FG BECMG 2107/2109 36010KT BECMG 2121/2124 BKN014

Bydgoszcz Ignacy Jan Paderewski Airport ( EPBY , BZG )


Location
  • Country: PL
  • Region: PL-KP
  • Municipality: Bydgoszcz
  • ARP: 53.0968 17.9777, elev. 235 ft
  • ICAO Address: EPBY
  • IATA Code: BZG
  • GPS Code: EPBY
  • Ident: EPBY
  • Time Zone: Europe/Warsaw
  • Actual Local Time: 23:04:01
Radio communication
TWR 131.000 MHz BYDGOSZCZ TWR
INFO 128.500 MHz INFO
Runways
Direction Width Length Surface
26 60 2500 CON
08 60 2500 CON
Comments



Advertisement